sensor_id;sensor_type;location;lat;lon;timestamp;P1;durP1;ratioP1;P2;durP2;ratioP2
64667;SDS011;51077;42.716;23.344;2022-11-06T00:00:17;24.40;;;13.30;;
64667;SDS011;51077;42.716;23.344;2022-11-06T00:02:43;24.13;;;14.50;;
64667;SDS011;51077;42.716;23.344;2022-11-06T00:05:09;28.20;;;14.73;;
64667;SDS011;51077;42.716;23.344;2022-11-06T00:07:54;21.77;;;14.13;;
64667;SDS011;51077;42.716;23.344;2022-11-06T00:10:20;22.70;;;14.43;;
64667;SDS011;51077;42.716;23.344;2022-11-06T00:12:46;25.33;;;14.23;;
64667;SDS011;51077;42.716;23.344;2022-11-06T00:15:12;24.42;;;15.57;;
64667;SDS011;51077;42.716;23.344;2022-11-06T00:17:37;22.30;;;14.67;;
64667;SDS011;51077;42.716;23.344;2022-11-06T00:20:03;20.27;;;13.27;;
64667;SDS011;51077;42.716;23.344;2022-11-06T00:22:36;23.48;;;14.50;;
64667;SDS011;51077;42.716;23.344;2022-11-06T00:25:03;20.10;;;13.45;;
64667;SDS011;51077;42.716;23.344;2022-11-06T00:27:29;22.90;;;13.75;;
64667;SDS011;51077;42.716;23.344;2022-11-06T00:29:55;20.77;;;12.33;;
64667;SDS011;51077;42.716;23.344;2022-11-06T00:32:20;22.47;;;11.10;;
64667;SDS011;51077;42.716;23.344;2022-11-06T00:34:46;18.00;;;10.57;;
64667;SDS011;51077;42.716;23.344;2022-11-06T00:37:12;20.52;;;10.65;;
64667;SDS011;51077;42.716;23.344;2022-11-06T00:39:38;19.33;;;10.60;;
64667;SDS011;51077;42.716;23.344;2022-11-06T00:42:03;19.23;;;10.67;;
64667;SDS011;51077;42.716;23.344;2022-11-06T00:44:29;17.00;;;9.87;;
64667;SDS011;51077;42.716;23.344;2022-11-06T00:46:55;14.50;;;10.07;;
64667;SDS011;51077;42.716;23.344;2022-11-06T00:49:20;14.57;;;9.50;;
64667;SDS011;51077;42.716;23.344;2022-11-06T00:51:45;17.20;;;10.57;;
64667;SDS011;51077;42.716;23.344;2022-11-06T00:54:11;18.27;;;10.10;;
64667;SDS011;51077;42.716;23.344;2022-11-06T00:56:37;20.38;;;9.90;;
64667;SDS011;51077;42.716;23.344;2022-11-06T00:59:04;17.87;;;9.70;;
64667;SDS011;51077;42.716;23.344;2022-11-06T01:01:33;16.25;;;10.05;;
64667;SDS011;51077;42.716;23.344;2022-11-06T01:04:01;18.98;;;9.55;;
64667;SDS011;51077;42.716;23.344;2022-11-06T01:06:30;18.60;;;10.15;;
64667;SDS011;51077;42.716;23.344;2022-11-06T01:08:58;18.00;;;10.18;;
64667;SDS011;51077;42.716;23.344;2022-11-06T01:11:28;17.85;;;10.32;;
64667;SDS011;51077;42.716;23.344;2022-11-06T01:14:00;17.35;;;9.98;;
64667;SDS011;51077;42.716;23.344;2022-11-06T01:16:28;17.63;;;9.98;;
64667;SDS011;51077;42.716;23.344;2022-11-06T01:18:54;20.17;;;10.27;;
64667;SDS011;51077;42.716;23.344;2022-11-06T01:21:22;15.77;;;9.65;;
64667;SDS011;51077;42.716;23.344;2022-11-06T01:23:53;20.90;;;10.05;;
64667;SDS011;51077;42.716;23.344;2022-11-06T01:26:20;15.25;;;9.02;;
64667;SDS011;51077;42.716;23.344;2022-11-06T01:28:46;16.63;;;9.23;;
64667;SDS011;51077;42.716;23.344;2022-11-06T01:31:14;15.25;;;9.27;;
64667;SDS011;51077;42.716;23.344;2022-11-06T01:33:41;12.73;;;8.77;;
64667;SDS011;51077;42.716;23.344;2022-11-06T01:36:08;15.20;;;9.57;;
64667;SDS011;51077;42.716;23.344;2022-11-06T01:38:35;18.13;;;10.05;;
64667;SDS011;51077;42.716;23.344;2022-11-06T01:41:00;16.87;;;9.67;;
64667;SDS011;51077;42.716;23.344;2022-11-06T01:46:10;17.20;;;9.15;;
64667;SDS011;51077;42.716;23.344;2022-11-06T01:48:36;12.93;;;8.93;;
64667;SDS011;51077;42.716;23.344;2022-11-06T01:51:04;15.25;;;9.07;;
64667;SDS011;51077;42.716;23.344;2022-11-06T01:53:32;14.02;;;9.43;;
64667;SDS011;51077;42.716;23.344;2022-11-06T01:56:00;17.80;;;9.63;;
64667;SDS011;51077;42.716;23.344;2022-11-06T01:58:28;16.63;;;9.55;;
64667;SDS011;51077;42.716;23.344;2022-11-06T02:00:56;15.63;;;9.55;;
64667;SDS011;51077;42.716;23.344;2022-11-06T02:03:22;16.83;;;10.43;;
64667;SDS011;51077;42.716;23.344;2022-11-06T02:05:47;14.57;;;10.10;;
64667;SDS011;51077;42.716;23.344;2022-11-06T02:08:18;15.73;;;8.97;;
64667;SDS011;51077;42.716;23.344;2022-11-06T02:10:45;16.88;;;9.25;;
64667;SDS011;51077;42.716;23.344;2022-11-06T02:29:59;12.77;;;8.90;;
64667;SDS011;51077;42.716;23.344;2022-11-06T02:38:19;14.63;;;9.18;;
64667;SDS011;51077;42.716;23.344;2022-11-06T02:40:54;14.48;;;8.18;;
64667;SDS011;51077;42.716;23.344;2022-11-06T02:43:25;13.60;;;9.40;;
64667;SDS011;51077;42.716;23.344;2022-11-06T02:46:00;13.27;;;8.27;;
64667;SDS011;51077;42.716;23.344;2022-11-06T02:48:31;14.63;;;8.50;;
64667;SDS011;51077;42.716;23.344;2022-11-06T02:51:01;14.57;;;8.70;;
64667;SDS011;51077;42.716;23.344;2022-11-06T02:53:29;11.63;;;7.50;;
64667;SDS011;51077;42.716;23.344;2022-11-06T02:55:58;17.00;;;7.78;;
64667;SDS011;51077;42.716;23.344;2022-11-06T02:58:45;17.92;;;9.00;;
64667;SDS011;51077;42.716;23.344;2022-11-06T03:01:26;11.35;;;7.45;;
64667;SDS011;51077;42.716;23.344;2022-11-06T03:03:57;17.63;;;8.02;;
64667;SDS011;51077;42.716;23.344;2022-11-06T03:06:44;13.20;;;6.63;;
64667;SDS011;51077;42.716;23.344;2022-11-06T03:09:17;13.68;;;7.00;;
64667;SDS011;51077;42.716;23.344;2022-11-06T03:11:45;11.52;;;7.15;;
64667;SDS011;51077;42.716;23.344;2022-11-06T03:17:16;16.33;;;7.60;;
64667;SDS011;51077;42.716;23.344;2022-11-06T03:19:52;12.10;;;6.70;;
64667;SDS011;51077;42.716;23.344;2022-11-06T03:22:29;14.00;;;6.25;;
64667;SDS011;51077;42.716;23.344;2022-11-06T03:30:20;12.63;;;6.30;;
64667;SDS011;51077;42.716;23.344;2022-11-06T03:32:53;11.60;;;5.13;;
64667;SDS011;51077;42.716;23.344;2022-11-06T03:35:50;12.45;;;5.90;;
64667;SDS011;51077;42.716;23.344;2022-11-06T03:38:21;11.80;;;4.80;;
64667;SDS011;51077;42.716;23.344;2022-11-06T03:40:56;15.18;;;5.55;;
64667;SDS011;51077;42.716;23.344;2022-11-06T03:43:27;10.35;;;5.05;;
64667;SDS011;51077;42.716;23.344;2022-11-06T03:45:59;12.95;;;6.07;;
64667;SDS011;51077;42.716;23.344;2022-11-06T03:48:33;9.93;;;5.65;;
64667;SDS011;51077;42.716;23.344;2022-11-06T03:53:55;9.55;;;5.00;;
64667;SDS011;51077;42.716;23.344;2022-11-06T03:59:13;9.73;;;5.13;;
64667;SDS011;51077;42.716;23.344;2022-11-06T04:01:43;13.90;;;5.95;;
64667;SDS011;51077;42.716;23.344;2022-11-06T04:04:15;10.77;;;5.10;;
64667;SDS011;51077;42.716;23.344;2022-11-06T04:06:47;13.38;;;5.50;;
64667;SDS011;51077;42.716;23.344;2022-11-06T04:09:17;10.95;;;5.35;;
64667;SDS011;51077;42.716;23.344;2022-11-06T04:12:04;16.25;;;5.90;;
64667;SDS011;51077;42.716;23.344;2022-11-06T04:14:52;10.30;;;5.93;;
64667;SDS011;51077;42.716;23.344;2022-11-06T04:17:21;11.45;;;5.93;;
64667;SDS011;51077;42.716;23.344;2022-11-06T04:19:51;14.40;;;5.85;;
64667;SDS011;51077;42.716;23.344;2022-11-06T04:25:22;10.43;;;5.30;;
64667;SDS011;51077;42.716;23.344;2022-11-06T04:34:09;8.15;;;5.13;;
64667;SDS011;51077;42.716;23.344;2022-11-06T04:39:12;8.75;;;5.03;;
64667;SDS011;51077;42.716;23.344;2022-11-06T04:47:05;8.05;;;5.47;;
64667;SDS011;51077;42.716;23.344;2022-11-06T04:49:34;10.50;;;6.07;;
64667;SDS011;51077;42.716;23.344;2022-11-06T04:52:03;13.88;;;6.22;;
64667;SDS011;51077;42.716;23.344;2022-11-06T04:54:32;12.07;;;6.93;;
64667;SDS011;51077;42.716;23.344;2022-11-06T04:56:58;15.77;;;5.88;;
64667;SDS011;51077;42.716;23.344;2022-11-06T04:59:24;14.67;;;6.20;;
64667;SDS011;51077;42.716;23.344;2022-11-06T05:01:50;10.80;;;5.95;;
64667;SDS011;51077;42.716;23.344;2022-11-06T05:04:16;12.07;;;5.90;;
64667;SDS011;51077;42.716;23.344;2022-11-06T05:06:42;12.35;;;6.50;;
64667;SDS011;51077;42.716;23.344;2022-11-06T05:09:08;12.07;;;6.07;;
64667;SDS011;51077;42.716;23.344;2022-11-06T05:11:34;10.53;;;6.20;;
64667;SDS011;51077;42.716;23.344;2022-11-06T05:13:59;13.27;;;6.97;;
64667;SDS011;51077;42.716;23.344;2022-11-06T05:16:24;14.20;;;7.50;;
64667;SDS011;51077;42.716;23.344;2022-11-06T05:18:50;12.43;;;6.87;;
64667;SDS011;51077;42.716;23.344;2022-11-06T05:21:15;11.93;;;6.97;;
64667;SDS011;51077;42.716;23.344;2022-11-06T05:23:59;12.30;;;7.15;;
64667;SDS011;51077;42.716;23.344;2022-11-06T05:26:25;11.23;;;6.57;;
64667;SDS011;51077;42.716;23.344;2022-11-06T05:28:50;11.53;;;6.43;;
64667;SDS011;51077;42.716;23.344;2022-11-06T05:31:16;13.07;;;6.70;;
64667;SDS011;51077;42.716;23.344;2022-11-06T05:33:41;10.37;;;6.80;;
64667;SDS011;51077;42.716;23.344;2022-11-06T05:36:06;14.40;;;6.77;;
64667;SDS011;51077;42.716;23.344;2022-11-06T05:38:32;10.00;;;6.73;;
64667;SDS011;51077;42.716;23.344;2022-11-06T05:40:58;12.10;;;6.47;;
64667;SDS011;51077;42.716;23.344;2022-11-06T05:43:24;10.90;;;6.57;;
64667;SDS011;51077;42.716;23.344;2022-11-06T05:45:50;11.63;;;7.27;;
64667;SDS011;51077;42.716;23.344;2022-11-06T05:48:15;11.93;;;7.13;;
64667;SDS011;51077;42.716;23.344;2022-11-06T05:50:40;14.03;;;8.10;;
64667;SDS011;51077;42.716;23.344;2022-11-06T05:53:06;19.17;;;8.40;;
64667;SDS011;51077;42.716;23.344;2022-11-06T05:55:31;16.60;;;8.20;;
64667;SDS011;51077;42.716;23.344;2022-11-06T05:57:57;12.97;;;7.80;;
64667;SDS011;51077;42.716;23.344;2022-11-06T06:00:23;12.63;;;7.73;;
64667;SDS011;51077;42.716;23.344;2022-11-06T06:02:49;14.80;;;7.85;;
64667;SDS011;51077;42.716;23.344;2022-11-06T06:05:14;13.30;;;7.27;;
64667;SDS011;51077;42.716;23.344;2022-11-06T06:07:40;17.03;;;8.17;;
64667;SDS011;51077;42.716;23.344;2022-11-06T06:10:05;12.50;;;6.77;;
64667;SDS011;51077;42.716;23.344;2022-11-06T06:12:31;13.73;;;8.35;;
64667;SDS011;51077;42.716;23.344;2022-11-06T06:14:57;17.50;;;9.10;;
64667;SDS011;51077;42.716;23.344;2022-11-06T06:17:23;15.20;;;8.47;;
64667;SDS011;51077;42.716;23.344;2022-11-06T06:19:48;11.90;;;7.50;;
64667;SDS011;51077;42.716;23.344;2022-11-06T06:22:14;13.27;;;8.23;;
64667;SDS011;51077;42.716;23.344;2022-11-06T06:24:39;16.20;;;8.50;;
64667;SDS011;51077;42.716;23.344;2022-11-06T06:27:05;14.00;;;8.60;;
64667;SDS011;51077;42.716;23.344;2022-11-06T06:29:31;12.05;;;7.70;;
64667;SDS011;51077;42.716;23.344;2022-11-06T06:31:56;14.43;;;8.93;;
64667;SDS011;51077;42.716;23.344;2022-11-06T06:34:22;14.67;;;8.97;;
64667;SDS011;51077;42.716;23.344;2022-11-06T06:36:48;15.00;;;9.03;;
64667;SDS011;51077;42.716;23.344;2022-11-06T06:39:15;14.70;;;8.77;;
64667;SDS011;51077;42.716;23.344;2022-11-06T06:41:41;21.70;;;9.55;;
64667;SDS011;51077;42.716;23.344;2022-11-06T06:44:06;14.10;;;9.10;;
64667;SDS011;51077;42.716;23.344;2022-11-06T06:46:31;17.10;;;9.13;;
64667;SDS011;51077;42.716;23.344;2022-11-06T06:48:57;16.77;;;9.03;;
64667;SDS011;51077;42.716;23.344;2022-11-06T06:51:22;13.17;;;8.80;;
64667;SDS011;51077;42.716;23.344;2022-11-06T06:53:48;14.70;;;8.97;;
64667;SDS011;51077;42.716;23.344;2022-11-06T06:56:13;15.37;;;8.83;;
64667;SDS011;51077;42.716;23.344;2022-11-06T06:58:39;14.48;;;8.85;;
64667;SDS011;51077;42.716;23.344;2022-11-06T07:01:05;15.37;;;9.30;;
64667;SDS011;51077;42.716;23.344;2022-11-06T07:03:34;14.65;;;8.10;;
64667;SDS011;51077;42.716;23.344;2022-11-06T07:06:01;12.82;;;9.43;;
64667;SDS011;51077;42.716;23.344;2022-11-06T07:08:27;15.03;;;8.57;;
64667;SDS011;51077;42.716;23.344;2022-11-06T07:10:57;14.05;;;8.90;;
64667;SDS011;51077;42.716;23.344;2022-11-06T07:13:23;14.65;;;8.57;;
64667;SDS011;51077;42.716;23.344;2022-11-06T07:15:48;17.00;;;9.13;;
64667;SDS011;51077;42.716;23.344;2022-11-06T07:18:14;15.20;;;9.23;;
64667;SDS011;51077;42.716;23.344;2022-11-06T07:20:39;14.63;;;9.37;;
64667;SDS011;51077;42.716;23.344;2022-11-06T07:23:05;16.53;;;9.43;;
64667;SDS011;51077;42.716;23.344;2022-11-06T07:25:31;16.42;;;10.18;;
64667;SDS011;51077;42.716;23.344;2022-11-06T07:28:01;14.23;;;9.47;;
64667;SDS011;51077;42.716;23.344;2022-11-06T07:30:30;14.27;;;10.18;;
64667;SDS011;51077;42.716;23.344;2022-11-06T07:32:58;15.10;;;10.20;;
64667;SDS011;51077;42.716;23.344;2022-11-06T07:35:25;14.65;;;9.93;;
64667;SDS011;51077;42.716;23.344;2022-11-06T07:37:50;13.63;;;9.70;;
64667;SDS011;51077;42.716;23.344;2022-11-06T07:40:16;17.97;;;10.07;;
64667;SDS011;51077;42.716;23.344;2022-11-06T07:42:41;18.27;;;10.83;;
64667;SDS011;51077;42.716;23.344;2022-11-06T07:45:07;20.90;;;12.40;;
64667;SDS011;51077;42.716;23.344;2022-11-06T07:47:33;17.75;;;12.30;;
64667;SDS011;51077;42.716;23.344;2022-11-06T07:49:58;18.50;;;11.97;;
64667;SDS011;51077;42.716;23.344;2022-11-06T07:52:24;23.47;;;13.40;;
64667;SDS011;51077;42.716;23.344;2022-11-06T07:54:49;20.97;;;12.73;;
64667;SDS011;51077;42.716;23.344;2022-11-06T07:57:15;18.37;;;11.73;;
64667;SDS011;51077;42.716;23.344;2022-11-06T07:59:40;16.27;;;10.83;;
64667;SDS011;51077;42.716;23.344;2022-11-06T08:02:08;17.05;;;11.82;;
64667;SDS011;51077;42.716;23.344;2022-11-06T08:04:36;16.75;;;11.02;;
64667;SDS011;51077;42.716;23.344;2022-11-06T08:07:02;15.10;;;11.00;;
64667;SDS011;51077;42.716;23.344;2022-11-06T08:09:27;20.40;;;11.70;;
64667;SDS011;51077;42.716;23.344;2022-11-06T08:11:53;16.03;;;11.13;;
64667;SDS011;51077;42.716;23.344;2022-11-06T08:14:18;15.03;;;9.57;;
64667;SDS011;51077;42.716;23.344;2022-11-06T08:16:44;19.97;;;11.33;;
64667;SDS011;51077;42.716;23.344;2022-11-06T08:19:09;16.80;;;10.60;;
64667;SDS011;51077;42.716;23.344;2022-11-06T08:21:34;20.60;;;11.23;;
64667;SDS011;51077;42.716;23.344;2022-11-06T08:24:00;16.40;;;10.13;;
64667;SDS011;51077;42.716;23.344;2022-11-06T08:26:25;19.67;;;9.40;;
64667;SDS011;51077;42.716;23.344;2022-11-06T08:28:51;21.88;;;13.05;;
64667;SDS011;51077;42.716;23.344;2022-11-06T08:31:17;16.60;;;11.27;;
64667;SDS011;51077;42.716;23.344;2022-11-06T08:33:43;20.63;;;11.83;;
64667;SDS011;51077;42.716;23.344;2022-11-06T08:36:08;18.33;;;11.47;;
64667;SDS011;51077;42.716;23.344;2022-11-06T08:38:34;18.73;;;11.50;;
64667;SDS011;51077;42.716;23.344;2022-11-06T08:41:07;25.48;;;13.35;;
64667;SDS011;51077;42.716;23.344;2022-11-06T08:43:35;20.90;;;13.00;;
64667;SDS011;51077;42.716;23.344;2022-11-06T08:46:01;22.92;;;13.70;;
64667;SDS011;51077;42.716;23.344;2022-11-06T08:48:28;27.95;;;14.32;;
64667;SDS011;51077;42.716;23.344;2022-11-06T08:50:53;29.77;;;15.00;;
64667;SDS011;51077;42.716;23.344;2022-11-06T08:53:19;22.37;;;14.47;;
64667;SDS011;51077;42.716;23.344;2022-11-06T08:55:44;17.63;;;12.73;;
64667;SDS011;51077;42.716;23.344;2022-11-06T08:58:10;18.53;;;12.67;;
64667;SDS011;51077;42.716;23.344;2022-11-06T09:00:35;21.90;;;15.63;;
64667;SDS011;51077;42.716;23.344;2022-11-06T09:03:05;25.02;;;17.88;;
64667;SDS011;51077;42.716;23.344;2022-11-06T09:05:40;22.08;;;14.35;;
64667;SDS011;51077;42.716;23.344;2022-11-06T09:08:07;24.33;;;16.02;;
64667;SDS011;51077;42.716;23.344;2022-11-06T09:10:32;19.30;;;14.20;;
64667;SDS011;51077;42.716;23.344;2022-11-06T09:12:58;19.20;;;14.27;;
64667;SDS011;51077;42.716;23.344;2022-11-06T09:15:23;18.90;;;13.47;;
64667;SDS011;51077;42.716;23.344;2022-11-06T09:17:49;18.40;;;11.90;;
64667;SDS011;51077;42.716;23.344;2022-11-06T09:20:16;17.67;;;11.57;;
64667;SDS011;51077;42.716;23.344;2022-11-06T09:22:43;18.73;;;12.25;;
64667;SDS011;51077;42.716;23.344;2022-11-06T09:25:09;17.45;;;11.38;;
64667;SDS011;51077;42.716;23.344;2022-11-06T09:27:51;16.57;;;11.57;;
64667;SDS011;51077;42.716;23.344;2022-11-06T09:30:19;17.60;;;11.80;;
64667;SDS011;51077;42.716;23.344;2022-11-06T09:32:47;18.40;;;12.10;;
64667;SDS011;51077;42.716;23.344;2022-11-06T09:35:15;20.95;;;11.57;;
64667;SDS011;51077;42.716;23.344;2022-11-06T09:37:41;18.33;;;11.75;;
64667;SDS011;51077;42.716;23.344;2022-11-06T09:40:06;16.80;;;11.70;;
64667;SDS011;51077;42.716;23.344;2022-11-06T09:42:52;15.05;;;11.13;;
64667;SDS011;51077;42.716;23.344;2022-11-06T09:45:40;19.48;;;11.60;;
64667;SDS011;51077;42.716;23.344;2022-11-06T09:50:58;16.02;;;10.77;;
64667;SDS011;51077;42.716;23.344;2022-11-06T09:56:48;14.75;;;9.43;;
64667;SDS011;51077;42.716;23.344;2022-11-06T09:59:19;13.80;;;9.40;;
64667;SDS011;51077;42.716;23.344;2022-11-06T10:01:53;16.70;;;9.57;;
64667;SDS011;51077;42.716;23.344;2022-11-06T10:09:58;15.57;;;10.23;;
64667;SDS011;51077;42.716;23.344;2022-11-06T10:15:05;12.38;;;9.80;;
64667;SDS011;51077;42.716;23.344;2022-11-06T10:18:02;14.45;;;10.43;;
64667;SDS011;51077;42.716;23.344;2022-11-06T10:20:30;13.48;;;9.07;;
64667;SDS011;51077;42.716;23.344;2022-11-06T10:23:04;13.57;;;8.95;;
64667;SDS011;51077;42.716;23.344;2022-11-06T10:25:49;15.57;;;8.85;;
64667;SDS011;51077;42.716;23.344;2022-11-06T10:34:00;10.85;;;9.13;;
64667;SDS011;51077;42.716;23.344;2022-11-06T10:36:35;14.40;;;8.75;;
64667;SDS011;51077;42.716;23.344;2022-11-06T10:39:09;15.18;;;8.98;;
64667;SDS011;51077;42.716;23.344;2022-11-06T10:41:39;13.68;;;9.00;;
64667;SDS011;51077;42.716;23.344;2022-11-06T10:44:12;13.18;;;8.68;;
64667;SDS011;51077;42.716;23.344;2022-11-06T10:46:47;12.27;;;8.43;;
64667;SDS011;51077;42.716;23.344;2022-11-06T10:49:29;11.10;;;8.23;;
64667;SDS011;51077;42.716;23.344;2022-11-06T11:00:10;9.15;;;6.40;;
64667;SDS011;51077;42.716;23.344;2022-11-06T11:02:38;7.50;;;5.60;;
64667;SDS011;51077;42.716;23.344;2022-11-06T11:05:12;7.00;;;5.45;;
64667;SDS011;51077;42.716;23.344;2022-11-06T11:07:40;7.15;;;5.00;;
64667;SDS011;51077;42.716;23.344;2022-11-06T11:13:00;7.53;;;5.15;;
64667;SDS011;51077;42.716;23.344;2022-11-06T11:15:29;8.07;;;5.30;;
64667;SDS011;51077;42.716;23.344;2022-11-06T11:18:23;7.45;;;5.43;;
64667;SDS011;51077;42.716;23.344;2022-11-06T11:21:04;8.65;;;6.47;;
64667;SDS011;51077;42.716;23.344;2022-11-06T11:23:31;11.25;;;6.43;;
64667;SDS011;51077;42.716;23.344;2022-11-06T11:26:13;9.67;;;6.33;;
64667;SDS011;51077;42.716;23.344;2022-11-06T11:28:58;8.98;;;6.28;;
64667;SDS011;51077;42.716;23.344;2022-11-06T11:31:28;8.27;;;6.60;;
64667;SDS011;51077;42.716;23.344;2022-11-06T11:33:57;10.40;;;7.07;;
64667;SDS011;51077;42.716;23.344;2022-11-06T11:36:28;9.32;;;6.75;;
64667;SDS011;51077;42.716;23.344;2022-11-06T11:39:12;10.55;;;7.65;;
64667;SDS011;51077;42.716;23.344;2022-11-06T11:41:40;12.20;;;7.25;;
64667;SDS011;51077;42.716;23.344;2022-11-06T11:49:26;15.70;;;7.70;;
64667;SDS011;51077;42.716;23.344;2022-11-06T11:51:57;13.10;;;7.38;;
64667;SDS011;51077;42.716;23.344;2022-11-06T11:54:25;12.30;;;8.60;;
64667;SDS011;51077;42.716;23.344;2022-11-06T11:57:01;15.23;;;9.57;;
64667;SDS011;51077;42.716;23.344;2022-11-06T11:59:28;16.55;;;10.57;;
64667;SDS011;51077;42.716;23.344;2022-11-06T12:01:59;17.02;;;10.63;;
64667;SDS011;51077;42.716;23.344;2022-11-06T12:04:33;17.08;;;11.27;;
64667;SDS011;51077;42.716;23.344;2022-11-06T12:07:03;17.10;;;11.43;;
64667;SDS011;51077;42.716;23.344;2022-11-06T12:09:32;15.93;;;10.00;;
64667;SDS011;51077;42.716;23.344;2022-11-06T12:12:05;13.60;;;8.45;;
64667;SDS011;51077;42.716;23.344;2022-11-06T12:14:34;11.83;;;7.80;;
64667;SDS011;51077;42.716;23.344;2022-11-06T12:19:27;10.67;;;7.07;;
64667;SDS011;51077;42.716;23.344;2022-11-06T12:21:58;12.48;;;7.30;;
64667;SDS011;51077;42.716;23.344;2022-11-06T12:24:33;10.55;;;7.05;;
64667;SDS011;51077;42.716;23.344;2022-11-06T12:27:09;10.13;;;6.72;;
64667;SDS011;51077;42.716;23.344;2022-11-06T12:29:41;9.50;;;6.00;;
64667;SDS011;51077;42.716;23.344;2022-11-06T12:35:17;10.10;;;6.28;;
64667;SDS011;51077;42.716;23.344;2022-11-06T12:43:45;8.52;;;5.65;;
64667;SDS011;51077;42.716;23.344;2022-11-06T12:49:31;10.75;;;5.72;;
64667;SDS011;51077;42.716;23.344;2022-11-06T12:57:48;11.47;;;5.77;;
64667;SDS011;51077;42.716;23.344;2022-11-06T13:14:15;7.97;;;5.13;;
64667;SDS011;51077;42.716;23.344;2022-11-06T13:17:10;9.32;;;5.28;;
64667;SDS011;51077;42.716;23.344;2022-11-06T13:27:41;7.45;;;5.13;;
64667;SDS011;51077;42.716;23.344;2022-11-06T13:30:16;8.68;;;4.82;;
64667;SDS011;51077;42.716;23.344;2022-11-06T13:32:49;7.53;;;5.13;;
64667;SDS011;51077;42.716;23.344;2022-11-06T13:35:35;6.70;;;4.45;;
64667;SDS011;51077;42.716;23.344;2022-11-06T13:38:05;8.40;;;5.18;;
64667;SDS011;51077;42.716;23.344;2022-11-06T13:40:34;6.22;;;4.10;;
64667;SDS011;51077;42.716;23.344;2022-11-06T13:43:09;8.18;;;5.15;;
64667;SDS011;51077;42.716;23.344;2022-11-06T13:45:41;6.65;;;3.90;;
64667;SDS011;51077;42.716;23.344;2022-11-06T13:50:57;6.25;;;4.07;;
64667;SDS011;51077;42.716;23.344;2022-11-06T13:53:43;7.05;;;3.65;;
64667;SDS011;51077;42.716;23.344;2022-11-06T13:59:03;7.50;;;3.57;;
64667;SDS011;51077;42.716;23.344;2022-11-06T14:04:35;7.75;;;4.05;;
64667;SDS011;51077;42.716;23.344;2022-11-06T14:07:14;8.90;;;4.20;;
64667;SDS011;51077;42.716;23.344;2022-11-06T14:09:42;9.48;;;4.60;;
64667;SDS011;51077;42.716;23.344;2022-11-06T14:12:15;7.05;;;4.03;;
64667;SDS011;51077;42.716;23.344;2022-11-06T14:14:47;7.93;;;4.10;;
64667;SDS011;51077;42.716;23.344;2022-11-06T14:24:58;7.90;;;4.40;;
64667;SDS011;51077;42.716;23.344;2022-11-06T14:34:48;9.03;;;5.30;;
64667;SDS011;51077;42.716;23.344;2022-11-06T14:44:54;8.77;;;5.82;;
64667;SDS011;51077;42.716;23.344;2022-11-06T14:47:25;9.32;;;5.80;;
64667;SDS011;51077;42.716;23.344;2022-11-06T14:50:03;8.15;;;5.70;;
64667;SDS011;51077;42.716;23.344;2022-11-06T14:52:43;8.73;;;6.20;;
64667;SDS011;51077;42.716;23.344;2022-11-06T15:00:49;16.25;;;7.88;;
64667;SDS011;51077;42.716;23.344;2022-11-06T15:03:18;15.05;;;9.07;;
64667;SDS011;51077;42.716;23.344;2022-11-06T15:05:46;15.73;;;8.75;;
64667;SDS011;51077;42.716;23.344;2022-11-06T15:08:13;18.05;;;9.30;;
64667;SDS011;51077;42.716;23.344;2022-11-06T15:13:54;14.30;;;9.20;;
64667;SDS011;51077;42.716;23.344;2022-11-06T15:16:20;13.27;;;8.80;;
64667;SDS011;51077;42.716;23.344;2022-11-06T15:18:48;13.75;;;7.97;;
64667;SDS011;51077;42.716;23.344;2022-11-06T15:21:16;11.93;;;8.13;;
64667;SDS011;51077;42.716;23.344;2022-11-06T15:24:02;14.75;;;8.40;;
64667;SDS011;51077;42.716;23.344;2022-11-06T15:26:36;16.33;;;9.07;;
64667;SDS011;51077;42.716;23.344;2022-11-06T15:31:46;12.07;;;8.18;;
64667;SDS011;51077;42.716;23.344;2022-11-06T15:34:16;11.50;;;7.00;;
64667;SDS011;51077;42.716;23.344;2022-11-06T15:36:49;13.07;;;8.10;;
64667;SDS011;51077;42.716;23.344;2022-11-06T15:41:48;12.45;;;7.28;;
64667;SDS011;51077;42.716;23.344;2022-11-06T15:44:17;14.45;;;8.10;;
64667;SDS011;51077;42.716;23.344;2022-11-06T15:46:51;11.10;;;7.53;;
64667;SDS011;51077;42.716;23.344;2022-11-06T15:49:19;14.30;;;9.48;;
64667;SDS011;51077;42.716;23.344;2022-11-06T15:51:52;16.23;;;9.80;;
64667;SDS011;51077;42.716;23.344;2022-11-06T15:57:09;21.25;;;12.77;;
64667;SDS011;51077;42.716;23.344;2022-11-06T15:59:40;18.95;;;13.43;;
64667;SDS011;51077;42.716;23.344;2022-11-06T16:02:19;24.50;;;18.30;;
64667;SDS011;51077;42.716;23.344;2022-11-06T16:04:46;26.98;;;17.17;;
64667;SDS011;51077;42.716;23.344;2022-11-06T16:07:13;21.75;;;15.63;;
64667;SDS011;51077;42.716;23.344;2022-11-06T16:09:42;23.40;;;15.52;;
64667;SDS011;51077;42.716;23.344;2022-11-06T16:12:10;23.70;;;15.57;;
64667;SDS011;51077;42.716;23.344;2022-11-06T16:14:42;21.02;;;14.23;;
64667;SDS011;51077;42.716;23.344;2022-11-06T16:17:26;23.02;;;14.02;;
64667;SDS011;51077;42.716;23.344;2022-11-06T16:19:52;19.52;;;12.85;;
64667;SDS011;51077;42.716;23.344;2022-11-06T16:22:29;22.27;;;11.95;;
64667;SDS011;51077;42.716;23.344;2022-11-06T16:25:00;16.88;;;10.88;;
64667;SDS011;51077;42.716;23.344;2022-11-06T16:27:32;20.27;;;11.23;;
64667;SDS011;51077;42.716;23.344;2022-11-06T16:30:01;18.38;;;11.07;;
64667;SDS011;51077;42.716;23.344;2022-11-06T16:32:30;16.65;;;9.75;;
64667;SDS011;51077;42.716;23.344;2022-11-06T16:35:27;13.63;;;9.05;;
64667;SDS011;51077;42.716;23.344;2022-11-06T16:43:12;11.93;;;7.88;;
64667;SDS011;51077;42.716;23.344;2022-11-06T16:46:01;11.45;;;7.75;;
64667;SDS011;51077;42.716;23.344;2022-11-06T16:53:41;11.35;;;6.57;;
64667;SDS011;51077;42.716;23.344;2022-11-06T16:56:22;11.32;;;6.78;;
64667;SDS011;51077;42.716;23.344;2022-11-06T16:58:56;9.65;;;7.07;;
64667;SDS011;51077;42.716;23.344;2022-11-06T17:01:39;9.52;;;6.68;;
64667;SDS011;51077;42.716;23.344;2022-11-06T17:04:23;9.43;;;5.75;;
64667;SDS011;51077;42.716;23.344;2022-11-06T17:06:51;9.85;;;6.68;;
64667;SDS011;51077;42.716;23.344;2022-11-06T17:11:46;9.48;;;6.63;;
64667;SDS011;51077;42.716;23.344;2022-11-06T17:14:18;12.13;;;7.00;;
64667;SDS011;51077;42.716;23.344;2022-11-06T17:16:51;11.35;;;7.35;;
64667;SDS011;51077;42.716;23.344;2022-11-06T17:19:19;11.60;;;7.93;;
64667;SDS011;51077;42.716;23.344;2022-11-06T17:21:46;14.68;;;9.00;;
64667;SDS011;51077;42.716;23.344;2022-11-06T17:24:12;15.25;;;10.35;;
64667;SDS011;51077;42.716;23.344;2022-11-06T17:26:40;19.30;;;11.10;;
64667;SDS011;51077;42.716;23.344;2022-11-06T17:29:11;18.90;;;12.25;;
64667;SDS011;51077;42.716;23.344;2022-11-06T17:31:37;18.43;;;12.70;;
64667;SDS011;51077;42.716;23.344;2022-11-06T17:34:03;17.50;;;12.82;;
64667;SDS011;51077;42.716;23.344;2022-11-06T17:36:29;20.50;;;14.52;;
64667;SDS011;51077;42.716;23.344;2022-11-06T17:38:57;22.75;;;15.07;;
64667;SDS011;51077;42.716;23.344;2022-11-06T17:41:23;22.83;;;14.90;;
64667;SDS011;51077;42.716;23.344;2022-11-06T17:46:33;22.27;;;15.57;;
64667;SDS011;51077;42.716;23.344;2022-11-06T17:49:00;21.48;;;15.40;;
64667;SDS011;51077;42.716;23.344;2022-11-06T17:51:29;24.88;;;17.30;;